sensor_id;sensor_type;location;lat;lon;timestamp;P1;durP1;ratioP1;P2;durP2;ratioP2
3267;SDS011;1646;52.450;13.326;2022-12-08T00:03:03;10.47;;;3.73;;
3267;SDS011;1646;52.450;13.326;2022-12-08T00:08:01;9.20;;;4.10;;
3267;SDS011;1646;52.450;13.326;2022-12-08T00:13:19;10.40;;;4.57;;
3267;SDS011;1646;52.450;13.326;2022-12-08T00:18:17;6.90;;;4.70;;
3267;SDS011;1646;52.450;13.326;2022-12-08T00:23:15;7.80;;;4.40;;
3267;SDS011;1646;52.450;13.326;2022-12-08T00:28:13;8.47;;;4.67;;
3267;SDS011;1646;52.450;13.326;2022-12-08T00:33:13;9.47;;;5.13;;
3267;SDS011;1646;52.450;13.326;2022-12-08T00:38:11;13.33;;;6.50;;
3267;SDS011;1646;52.450;13.326;2022-12-08T00:43:09;8.07;;;4.93;;
3267;SDS011;1646;52.450;13.326;2022-12-08T00:48:07;10.97;;;4.70;;
3267;SDS011;1646;52.450;13.326;2022-12-08T00:53:07;9.93;;;5.20;;
3267;SDS011;1646;52.450;13.326;2022-12-08T00:58:05;16.20;;;5.80;;
3267;SDS011;1646;52.450;13.326;2022-12-08T01:03:03;8.13;;;4.40;;
3267;SDS011;1646;52.450;13.326;2022-12-08T01:08:02;7.40;;;5.60;;
3267;SDS011;1646;52.450;13.326;2022-12-08T01:13:03;12.03;;;5.50;;
3267;SDS011;1646;52.450;13.326;2022-12-08T01:18:01;8.77;;;4.93;;
3267;SDS011;1646;52.450;13.326;2022-12-08T01:23:00;10.77;;;5.20;;
3267;SDS011;1646;52.450;13.326;2022-12-08T01:27:58;7.73;;;4.50;;
3267;SDS011;1646;52.450;13.326;2022-12-08T01:32:57;8.97;;;5.10;;
3267;SDS011;1646;52.450;13.326;2022-12-08T01:37:55;10.57;;;5.63;;
3267;SDS011;1646;52.450;13.326;2022-12-08T01:42:53;10.90;;;5.67;;
3267;SDS011;1646;52.450;13.326;2022-12-08T01:47:52;8.93;;;5.77;;
3267;SDS011;1646;52.450;13.326;2022-12-08T01:52:56;8.97;;;5.67;;
3267;SDS011;1646;52.450;13.326;2022-12-08T01:57:59;10.17;;;5.43;;
3267;SDS011;1646;52.450;13.326;2022-12-08T02:03:03;10.87;;;6.43;;
3267;SDS011;1646;52.450;13.326;2022-12-08T02:08:07;13.40;;;5.87;;
3267;SDS011;1646;52.450;13.326;2022-12-08T02:13:07;8.63;;;5.40;;
3267;SDS011;1646;52.450;13.326;2022-12-08T02:18:13;11.07;;;6.30;;
3267;SDS011;1646;52.450;13.326;2022-12-08T02:23:29;9.87;;;5.60;;
3267;SDS011;1646;52.450;13.326;2022-12-08T02:28:42;14.27;;;6.80;;
3267;SDS011;1646;52.450;13.326;2022-12-08T02:34:09;11.70;;;6.50;;
3267;SDS011;1646;52.450;13.326;2022-12-08T02:39:17;9.70;;;5.60;;
3267;SDS011;1646;52.450;13.326;2022-12-08T02:44:24;9.00;;;5.77;;
3267;SDS011;1646;52.450;13.326;2022-12-08T02:49:28;9.80;;;5.73;;
3267;SDS011;1646;52.450;13.326;2022-12-08T02:54:26;12.20;;;4.97;;
3267;SDS011;1646;52.450;13.326;2022-12-08T02:59:26;9.33;;;5.40;;
3267;SDS011;1646;52.450;13.326;2022-12-08T03:04:42;10.10;;;5.20;;
3267;SDS011;1646;52.450;13.326;2022-12-08T03:09:46;8.17;;;5.00;;
3267;SDS011;1646;52.450;13.326;2022-12-08T03:14:49;7.50;;;4.83;;
3267;SDS011;1646;52.450;13.326;2022-12-08T03:19:52;8.10;;;4.40;;
3267;SDS011;1646;52.450;13.326;2022-12-08T03:24:50;14.60;;;5.53;;
3267;SDS011;1646;52.450;13.326;2022-12-08T03:29:50;9.47;;;4.70;;
3267;SDS011;1646;52.450;13.326;2022-12-08T03:34:53;9.87;;;4.50;;
3267;SDS011;1646;52.450;13.326;2022-12-08T03:39:53;6.47;;;4.47;;
3267;SDS011;1646;52.450;13.326;2022-12-08T03:44:51;8.77;;;5.03;;
3267;SDS011;1646;52.450;13.326;2022-12-08T03:49:50;12.10;;;6.00;;
3267;SDS011;1646;52.450;13.326;2022-12-08T03:54:49;16.30;;;7.63;;
3267;SDS011;1646;52.450;13.326;2022-12-08T03:59:47;16.70;;;8.80;;
3267;SDS011;1646;52.450;13.326;2022-12-08T04:04:45;19.47;;;8.53;;
3267;SDS011;1646;52.450;13.326;2022-12-08T04:09:43;15.70;;;8.23;;
3267;SDS011;1646;52.450;13.326;2022-12-08T04:14:42;19.53;;;10.77;;
3267;SDS011;1646;52.450;13.326;2022-12-08T04:19:41;18.80;;;9.87;;
3267;SDS011;1646;52.450;13.326;2022-12-08T04:24:39;16.40;;;10.40;;
3267;SDS011;1646;52.450;13.326;2022-12-08T04:29:37;18.93;;;10.60;;
3267;SDS011;1646;52.450;13.326;2022-12-08T04:34:36;19.77;;;10.33;;
3267;SDS011;1646;52.450;13.326;2022-12-08T04:39:34;20.60;;;11.50;;
3267;SDS011;1646;52.450;13.326;2022-12-08T04:44:32;22.00;;;11.27;;
3267;SDS011;1646;52.450;13.326;2022-12-08T04:49:30;22.60;;;11.07;;
3267;SDS011;1646;52.450;13.326;2022-12-08T04:54:30;21.67;;;10.50;;
3267;SDS011;1646;52.450;13.326;2022-12-08T04:59:28;20.67;;;10.87;;
3267;SDS011;1646;52.450;13.326;2022-12-08T05:04:26;20.63;;;10.20;;
3267;SDS011;1646;52.450;13.326;2022-12-08T05:09:24;28.40;;;14.00;;
3267;SDS011;1646;52.450;13.326;2022-12-08T05:14:23;23.07;;;10.30;;
3267;SDS011;1646;52.450;13.326;2022-12-08T05:19:21;20.40;;;10.70;;
3267;SDS011;1646;52.450;13.326;2022-12-08T05:24:19;24.90;;;10.67;;
3267;SDS011;1646;52.450;13.326;2022-12-08T05:29:17;28.60;;;11.70;;
3267;SDS011;1646;52.450;13.326;2022-12-08T05:34:17;20.53;;;12.83;;
3267;SDS011;1646;52.450;13.326;2022-12-08T05:39:15;20.00;;;10.87;;
3267;SDS011;1646;52.450;13.326;2022-12-08T05:44:13;19.40;;;10.23;;
3267;SDS011;1646;52.450;13.326;2022-12-08T05:49:11;19.17;;;10.27;;
3267;SDS011;1646;52.450;13.326;2022-12-08T05:54:11;28.10;;;12.27;;
3267;SDS011;1646;52.450;13.326;2022-12-08T05:59:09;23.33;;;11.10;;
3267;SDS011;1646;52.450;13.326;2022-12-08T06:04:07;24.17;;;11.20;;
3267;SDS011;1646;52.450;13.326;2022-12-08T06:09:05;23.93;;;11.73;;
3267;SDS011;1646;52.450;13.326;2022-12-08T06:14:07;23.60;;;10.80;;
3267;SDS011;1646;52.450;13.326;2022-12-08T06:19:07;22.60;;;10.40;;
3267;SDS011;1646;52.450;13.326;2022-12-08T06:24:06;21.90;;;10.83;;
3267;SDS011;1646;52.450;13.326;2022-12-08T06:29:05;20.90;;;10.67;;
3267;SDS011;1646;52.450;13.326;2022-12-08T06:34:04;20.63;;;10.97;;
3267;SDS011;1646;52.450;13.326;2022-12-08T06:39:02;24.70;;;10.27;;
3267;SDS011;1646;52.450;13.326;2022-12-08T06:44:00;17.93;;;10.23;;
3267;SDS011;1646;52.450;13.326;2022-12-08T06:49:00;20.33;;;10.73;;
3267;SDS011;1646;52.450;13.326;2022-12-08T06:53:58;21.27;;;11.47;;
3267;SDS011;1646;52.450;13.326;2022-12-08T06:58:56;17.80;;;10.00;;
3267;SDS011;1646;52.450;13.326;2022-12-08T07:03:54;20.00;;;9.80;;
3267;SDS011;1646;52.450;13.326;2022-12-08T07:08:53;19.50;;;10.03;;
3267;SDS011;1646;52.450;13.326;2022-12-08T07:13:51;21.33;;;10.57;;
3267;SDS011;1646;52.450;13.326;2022-12-08T07:18:51;25.63;;;11.37;;
3267;SDS011;1646;52.450;13.326;2022-12-08T07:23:49;17.60;;;10.00;;
3267;SDS011;1646;52.450;13.326;2022-12-08T07:28:54;19.30;;;10.30;;
3267;SDS011;1646;52.450;13.326;2022-12-08T07:33:52;20.80;;;10.60;;
3267;SDS011;1646;52.450;13.326;2022-12-08T07:38:51;24.93;;;9.70;;
3267;SDS011;1646;52.450;13.326;2022-12-08T07:43:50;17.27;;;9.87;;
3267;SDS011;1646;52.450;13.326;2022-12-08T07:48:50;21.50;;;10.40;;
3267;SDS011;1646;52.450;13.326;2022-12-08T07:53:49;21.53;;;11.07;;
3267;SDS011;1646;52.450;13.326;2022-12-08T07:58:50;20.67;;;9.83;;
3267;SDS011;1646;52.450;13.326;2022-12-08T08:03:50;21.10;;;11.50;;
3267;SDS011;1646;52.450;13.326;2022-12-08T08:08:48;24.43;;;11.20;;
3267;SDS011;1646;52.450;13.326;2022-12-08T08:13:46;21.60;;;9.93;;
3267;SDS011;1646;52.450;13.326;2022-12-08T08:18:45;17.73;;;10.23;;
3267;SDS011;1646;52.450;13.326;2022-12-08T08:23:46;18.53;;;8.70;;
3267;SDS011;1646;52.450;13.326;2022-12-08T08:28:44;21.17;;;10.80;;
3267;SDS011;1646;52.450;13.326;2022-12-08T08:33:43;20.00;;;10.23;;
3267;SDS011;1646;52.450;13.326;2022-12-08T08:38:43;16.63;;;9.23;;
3267;SDS011;1646;52.450;13.326;2022-12-08T08:43:43;18.20;;;9.90;;
3267;SDS011;1646;52.450;13.326;2022-12-08T08:48:41;24.77;;;10.87;;
3267;SDS011;1646;52.450;13.326;2022-12-08T08:53:39;18.20;;;9.50;;
3267;SDS011;1646;52.450;13.326;2022-12-08T08:58:39;19.77;;;10.40;;
3267;SDS011;1646;52.450;13.326;2022-12-08T09:03:37;16.10;;;9.87;;
3267;SDS011;1646;52.450;13.326;2022-12-08T09:08:35;20.00;;;10.30;;
3267;SDS011;1646;52.450;13.326;2022-12-08T09:13:34;17.07;;;9.33;;
3267;SDS011;1646;52.450;13.326;2022-12-08T09:18:33;19.67;;;10.83;;
3267;SDS011;1646;52.450;13.326;2022-12-08T09:23:31;19.50;;;10.40;;
3267;SDS011;1646;52.450;13.326;2022-12-08T09:28:31;18.90;;;11.13;;
3267;SDS011;1646;52.450;13.326;2022-12-08T09:33:29;21.37;;;11.17;;
3267;SDS011;1646;52.450;13.326;2022-12-08T09:38:29;20.97;;;10.63;;
3267;SDS011;1646;52.450;13.326;2022-12-08T09:43:38;24.43;;;11.50;;
3267;SDS011;1646;52.450;13.326;2022-12-08T09:48:43;18.83;;;10.90;;
3267;SDS011;1646;52.450;13.326;2022-12-08T09:53:53;21.63;;;10.73;;
3267;SDS011;1646;52.450;13.326;2022-12-08T09:58:55;19.57;;;9.93;;
3267;SDS011;1646;52.450;13.326;2022-12-08T10:03:56;19.63;;;10.33;;
3267;SDS011;1646;52.450;13.326;2022-12-08T10:08:57;16.77;;;10.33;;
3267;SDS011;1646;52.450;13.326;2022-12-08T10:14:11;22.07;;;11.30;;
3267;SDS011;1646;52.450;13.326;2022-12-08T10:19:17;18.00;;;10.10;;
3267;SDS011;1646;52.450;13.326;2022-12-08T10:24:25;18.00;;;10.80;;
3267;SDS011;1646;52.450;13.326;2022-12-08T10:29:28;19.00;;;10.77;;
3267;SDS011;1646;52.450;13.326;2022-12-08T10:34:26;18.80;;;10.17;;
3267;SDS011;1646;52.450;13.326;2022-12-08T10:39:33;17.17;;;10.43;;
3267;SDS011;1646;52.450;13.326;2022-12-08T10:44:35;18.43;;;9.53;;
3267;SDS011;1646;52.450;13.326;2022-12-08T10:49:45;22.17;;;9.40;;
3267;SDS011;1646;52.450;13.326;2022-12-08T10:54:45;16.10;;;9.37;;
3267;SDS011;1646;52.450;13.326;2022-12-08T10:59:48;18.30;;;9.77;;
3267;SDS011;1646;52.450;13.326;2022-12-08T11:04:46;17.27;;;9.37;;
3267;SDS011;1646;52.450;13.326;2022-12-08T11:09:53;16.00;;;9.10;;
3267;SDS011;1646;52.450;13.326;2022-12-08T11:14:54;14.80;;;7.63;;
3267;SDS011;1646;52.450;13.326;2022-12-08T11:19:58;17.07;;;8.60;;
3267;SDS011;1646;52.450;13.326;2022-12-08T11:25:00;13.17;;;8.20;;
3267;SDS011;1646;52.450;13.326;2022-12-08T11:30:11;17.70;;;9.83;;
3267;SDS011;1646;52.450;13.326;2022-12-08T11:35:15;15.03;;;8.30;;
3267;SDS011;1646;52.450;13.326;2022-12-08T11:40:20;18.17;;;8.93;;
3267;SDS011;1646;52.450;13.326;2022-12-08T11:45:23;15.60;;;8.80;;
3267;SDS011;1646;52.450;13.326;2022-12-08T11:50:24;13.70;;;7.77;;
3267;SDS011;1646;52.450;13.326;2022-12-08T11:55:30;16.17;;;8.37;;
3267;SDS011;1646;52.450;13.326;2022-12-08T12:00:35;16.63;;;8.80;;
3267;SDS011;1646;52.450;13.326;2022-12-08T12:05:35;13.97;;;7.83;;
3267;SDS011;1646;52.450;13.326;2022-12-08T12:11:02;13.73;;;7.13;;
3267;SDS011;1646;52.450;13.326;2022-12-08T12:16:19;12.27;;;7.50;;
3267;SDS011;1646;52.450;13.326;2022-12-08T12:21:37;11.80;;;7.93;;
3267;SDS011;1646;52.450;13.326;2022-12-08T12:26:52;18.03;;;9.00;;
3267;SDS011;1646;52.450;13.326;2022-12-08T12:31:55;14.10;;;8.00;;
3267;SDS011;1646;52.450;13.326;2022-12-08T12:36:56;17.00;;;8.93;;
3267;SDS011;1646;52.450;13.326;2022-12-08T12:42:01;17.70;;;9.30;;
3267;SDS011;1646;52.450;13.326;2022-12-08T12:47:01;14.70;;;9.03;;
3267;SDS011;1646;52.450;13.326;2022-12-08T12:52:04;19.87;;;8.80;;
3267;SDS011;1646;52.450;13.326;2022-12-08T12:57:33;14.30;;;8.97;;
3267;SDS011;1646;52.450;13.326;2022-12-08T13:02:33;14.17;;;8.73;;
3267;SDS011;1646;52.450;13.326;2022-12-08T13:07:42;21.90;;;10.50;;
3267;SDS011;1646;52.450;13.326;2022-12-08T13:12:44;13.97;;;9.20;;
3267;SDS011;1646;52.450;13.326;2022-12-08T13:17:43;15.70;;;10.20;;
3267;SDS011;1646;52.450;13.326;2022-12-08T13:23:02;17.60;;;9.30;;
3267;SDS011;1646;52.450;13.326;2022-12-08T13:28:15;19.97;;;10.97;;
3267;SDS011;1646;52.450;13.326;2022-12-08T13:33:21;20.70;;;10.73;;
3267;SDS011;1646;52.450;13.326;2022-12-08T13:38:26;19.30;;;10.80;;
3267;SDS011;1646;52.450;13.326;2022-12-08T13:43:33;17.73;;;9.67;;
3267;SDS011;1646;52.450;13.326;2022-12-08T13:48:54;19.67;;;10.40;;
3267;SDS011;1646;52.450;13.326;2022-12-08T13:54:16;19.37;;;9.70;;
3267;SDS011;1646;52.450;13.326;2022-12-08T13:59:41;20.47;;;10.33;;
3267;SDS011;1646;52.450;13.326;2022-12-08T14:04:42;21.90;;;10.40;;
3267;SDS011;1646;52.450;13.326;2022-12-08T14:10:02;20.10;;;11.30;;
3267;SDS011;1646;52.450;13.326;2022-12-08T14:15:06;18.13;;;9.80;;
3267;SDS011;1646;52.450;13.326;2022-12-08T14:20:13;16.30;;;10.33;;
3267;SDS011;1646;52.450;13.326;2022-12-08T14:25:19;15.80;;;9.67;;
3267;SDS011;1646;52.450;13.326;2022-12-08T14:30:20;10.03;;;6.57;;
3267;SDS011;1646;52.450;13.326;2022-12-08T14:35:22;11.43;;;6.80;;
3267;SDS011;1646;52.450;13.326;2022-12-08T14:40:22;12.07;;;6.87;;
3267;SDS011;1646;52.450;13.326;2022-12-08T14:45:25;10.30;;;7.03;;
3267;SDS011;1646;52.450;13.326;2022-12-08T14:50:37;11.00;;;7.20;;
3267;SDS011;1646;52.450;13.326;2022-12-08T14:55:37;13.10;;;7.90;;
3267;SDS011;1646;52.450;13.326;2022-12-08T15:00:36;12.43;;;8.13;;
3267;SDS011;1646;52.450;13.326;2022-12-08T15:05:41;14.73;;;8.03;;
3267;SDS011;1646;52.450;13.326;2022-12-08T15:10:40;12.40;;;7.30;;
3267;SDS011;1646;52.450;13.326;2022-12-08T15:15:46;11.77;;;7.30;;
3267;SDS011;1646;52.450;13.326;2022-12-08T15:20:46;10.53;;;7.77;;
3267;SDS011;1646;52.450;13.326;2022-12-08T15:25:47;11.10;;;7.67;;
3267;SDS011;1646;52.450;13.326;2022-12-08T15:30:47;13.50;;;7.10;;
3267;SDS011;1646;52.450;13.326;2022-12-08T15:35:45;14.37;;;7.33;;
3267;SDS011;1646;52.450;13.326;2022-12-08T15:40:45;15.17;;;9.10;;
3267;SDS011;1646;52.450;13.326;2022-12-08T15:45:43;15.57;;;7.90;;
3267;SDS011;1646;52.450;13.326;2022-12-08T15:50:56;12.53;;;7.90;;
3267;SDS011;1646;52.450;13.326;2022-12-08T15:55:54;10.47;;;7.23;;
3267;SDS011;1646;52.450;13.326;2022-12-08T16:01:12;13.23;;;8.80;;
3267;SDS011;1646;52.450;13.326;2022-12-08T16:06:15;10.70;;;7.73;;
3267;SDS011;1646;52.450;13.326;2022-12-08T16:11:35;12.20;;;8.40;;
3267;SDS011;1646;52.450;13.326;2022-12-08T16:17:07;12.20;;;7.80;;
3267;SDS011;1646;52.450;13.326;2022-12-08T16:22:12;14.10;;;8.73;;
3267;SDS011;1646;52.450;13.326;2022-12-08T16:27:33;12.23;;;7.70;;
3267;SDS011;1646;52.450;13.326;2022-12-08T16:32:53;12.73;;;8.20;;
3267;SDS011;1646;52.450;13.326;2022-12-08T16:37:53;14.00;;;8.13;;
3267;SDS011;1646;52.450;13.326;2022-12-08T16:42:51;17.03;;;9.83;;
3267;SDS011;1646;52.450;13.326;2022-12-08T16:47:49;20.43;;;9.40;;
3267;SDS011;1646;52.450;13.326;2022-12-08T16:52:49;16.40;;;9.03;;
3267;SDS011;1646;52.450;13.326;2022-12-08T16:57:54;13.93;;;9.83;;
3267;SDS011;1646;52.450;13.326;2022-12-08T17:02:53;15.27;;;9.83;;
3267;SDS011;1646;52.450;13.326;2022-12-08T17:07:51;17.20;;;10.20;;
3267;SDS011;1646;52.450;13.326;2022-12-08T17:12:51;17.67;;;10.33;;
3267;SDS011;1646;52.450;13.326;2022-12-08T17:17:50;17.20;;;10.70;;
3267;SDS011;1646;52.450;13.326;2022-12-08T17:22:49;16.60;;;10.73;;
3267;SDS011;1646;52.450;13.326;2022-12-08T17:27:49;17.50;;;10.40;;
3267;SDS011;1646;52.450;13.326;2022-12-08T17:32:48;16.20;;;9.70;;
3267;SDS011;1646;52.450;13.326;2022-12-08T17:37:47;14.60;;;9.80;;
3267;SDS011;1646;52.450;13.326;2022-12-08T17:42:46;20.37;;;11.00;;
3267;SDS011;1646;52.450;13.326;2022-12-08T17:47:44;18.70;;;11.17;;
3267;SDS011;1646;52.450;13.326;2022-12-08T17:52:43;19.40;;;12.30;;
3267;SDS011;1646;52.450;13.326;2022-12-08T17:57:41;20.83;;;12.50;;
3267;SDS011;1646;52.450;13.326;2022-12-08T18:02:39;21.57;;;12.00;;
3267;SDS011;1646;52.450;13.326;2022-12-08T18:07:37;18.60;;;11.30;;
3267;SDS011;1646;52.450;13.326;2022-12-08T18:12:37;21.73;;;12.30;;
3267;SDS011;1646;52.450;13.326;2022-12-08T18:17:35;22.30;;;11.50;;
3267;SDS011;1646;52.450;13.326;2022-12-08T18:22:33;17.10;;;11.20;;
3267;SDS011;1646;52.450;13.326;2022-12-08T18:27:31;18.93;;;11.90;;
3267;SDS011;1646;52.450;13.326;2022-12-08T18:32:39;25.23;;;12.63;;
3267;SDS011;1646;52.450;13.326;2022-12-08T18:37:37;25.40;;;13.20;;
3267;SDS011;1646;52.450;13.326;2022-12-08T18:42:36;21.63;;;12.93;;
3267;SDS011;1646;52.450;13.326;2022-12-08T18:47:34;26.70;;;13.53;;
3267;SDS011;1646;52.450;13.326;2022-12-08T18:52:35;23.73;;;13.00;;
3267;SDS011;1646;52.450;13.326;2022-12-08T18:57:33;22.73;;;14.27;;
3267;SDS011;1646;52.450;13.326;2022-12-08T19:02:33;25.80;;;14.23;;
3267;SDS011;1646;52.450;13.326;2022-12-08T19:07:31;21.30;;;13.03;;
3267;SDS011;1646;52.450;13.326;2022-12-08T19:12:31;20.60;;;12.93;;
3267;SDS011;1646;52.450;13.326;2022-12-08T19:17:29;23.87;;;13.50;;
3267;SDS011;1646;52.450;13.326;2022-12-08T19:22:27;22.30;;;13.07;;
3267;SDS011;1646;52.450;13.326;2022-12-08T19:27:25;24.10;;;13.40;;
3267;SDS011;1646;52.450;13.326;2022-12-08T19:32:25;23.63;;;12.77;;
3267;SDS011;1646;52.450;13.326;2022-12-08T19:37:25;23.67;;;13.67;;
3267;SDS011;1646;52.450;13.326;2022-12-08T19:42:23;23.17;;;13.00;;
3267;SDS011;1646;52.450;13.326;2022-12-08T19:47:40;24.50;;;13.77;;
3267;SDS011;1646;52.450;13.326;2022-12-08T19:52:41;21.10;;;12.50;;
3267;SDS011;1646;52.450;13.326;2022-12-08T19:57:40;24.00;;;12.80;;
3267;SDS011;1646;52.450;13.326;2022-12-08T20:02:39;25.63;;;13.53;;
3267;SDS011;1646;52.450;13.326;2022-12-08T20:07:38;22.43;;;12.20;;
3267;SDS011;1646;52.450;13.326;2022-12-08T20:12:36;25.60;;;13.40;;
3267;SDS011;1646;52.450;13.326;2022-12-08T20:17:34;23.53;;;12.50;;
3267;SDS011;1646;52.450;13.326;2022-12-08T20:22:34;25.00;;;13.23;;
3267;SDS011;1646;52.450;13.326;2022-12-08T20:27:32;26.37;;;13.10;;
3267;SDS011;1646;52.450;13.326;2022-12-08T20:32:30;19.73;;;12.30;;
3267;SDS011;1646;52.450;13.326;2022-12-08T20:37:28;21.70;;;11.70;;
3267;SDS011;1646;52.450;13.326;2022-12-08T20:42:28;24.43;;;12.60;;
3267;SDS011;1646;52.450;13.326;2022-12-08T20:47:26;22.77;;;12.50;;
3267;SDS011;1646;52.450;13.326;2022-12-08T20:52:24;21.07;;;11.47;;
3267;SDS011;1646;52.450;13.326;2022-12-08T20:57:22;24.50;;;12.30;;
3267;SDS011;1646;52.450;13.326;2022-12-08T21:02:22;25.47;;;11.97;;
3267;SDS011;1646;52.450;13.326;2022-12-08T21:07:20;23.37;;;12.60;;
3267;SDS011;1646;52.450;13.326;2022-12-08T21:12:18;21.40;;;11.93;;
3267;SDS011;1646;52.450;13.326;2022-12-08T21:17:16;25.23;;;12.47;;
3267;SDS011;1646;52.450;13.326;2022-12-08T21:22:16;22.23;;;12.33;;
3267;SDS011;1646;52.450;13.326;2022-12-08T21:27:16;19.13;;;11.70;;
3267;SDS011;1646;52.450;13.326;2022-12-08T21:32:14;22.60;;;12.47;;
3267;SDS011;1646;52.450;13.326;2022-12-08T21:37:12;22.90;;;12.70;;
3267;SDS011;1646;52.450;13.326;2022-12-08T21:42:12;26.37;;;14.97;;
3267;SDS011;1646;52.450;13.326;2022-12-08T21:47:30;26.67;;;13.67;;
3267;SDS011;1646;52.450;13.326;2022-12-08T21:52:28;24.50;;;13.47;;
3267;SDS011;1646;52.450;13.326;2022-12-08T21:57:28;26.53;;;13.67;;
3267;SDS011;1646;52.450;13.326;2022-12-08T22:02:26;25.93;;;12.77;;
3267;SDS011;1646;52.450;13.326;2022-12-08T22:07:24;28.00;;;13.60;;
3267;SDS011;1646;52.450;13.326;2022-12-08T22:12:23;25.10;;;13.40;;
3267;SDS011;1646;52.450;13.326;2022-12-08T22:17:22;26.23;;;13.47;;
3267;SDS011;1646;52.450;13.326;2022-12-08T22:22:20;24.03;;;12.03;;
3267;SDS011;1646;52.450;13.326;2022-12-08T22:27:19;26.67;;;14.37;;
3267;SDS011;1646;52.450;13.326;2022-12-08T22:32:17;27.67;;;13.60;;
3267;SDS011;1646;52.450;13.326;2022-12-08T22:37:16;20.80;;;11.77;;
3267;SDS011;1646;52.450;13.326;2022-12-08T22:42:14;24.87;;;11.73;;
3267;SDS011;1646;52.450;13.326;2022-12-08T22:47:12;24.10;;;13.20;;
3267;SDS011;1646;52.450;13.326;2022-12-08T22:52:11;23.37;;;12.90;;
3267;SDS011;1646;52.450;13.326;2022-12-08T22:57:10;21.53;;;12.57;;
3267;SDS011;1646;52.450;13.326;2022-12-08T23:02:08;22.10;;;11.70;;
3267;SDS011;1646;52.450;13.326;2022-12-08T23:07:06;24.00;;;12.73;;
3267;SDS011;1646;52.450;13.326;2022-12-08T23:12:05;22.87;;;12.23;;
3267;SDS011;1646;52.450;13.326;2022-12-08T23:17:04;24.03;;;12.33;;
3267;SDS011;1646;52.450;13.326;2022-12-08T23:22:03;29.13;;;15.20;;
3267;SDS011;1646;52.450;13.326;2022-12-08T23:27:01;28.30;;;15.40;;
3267;SDS011;1646;52.450;13.326;2022-12-08T23:32:00;27.83;;;15.40;;
3267;SDS011;1646;52.450;13.326;2022-12-08T23:36:59;29.10;;;16.80;;
3267;SDS011;1646;52.450;13.326;2022-12-08T23:41:57;32.60;;;15.40;;
3267;SDS011;1646;52.450;13.326;2022-12-08T23:46:56;26.40;;;15.50;;
3267;SDS011;1646;52.450;13.326;2022-12-08T23:51:54;27.43;;;14.80;;
3267;SDS011;1646;52.450;13.326;2022-12-08T23:56:53;37.10;;;17.40;;
